CheckWX is a tool to help pilots better visualize weather data.  It is not intended as a substitute for an official pre-flight weather briefing.

21:13:42 UTC

KLAN TAF
Capital Region International Airport
Lansing, Michigan, USA
KLAN 161740Z 1618/1718 07005KT P6SM OVC015 FM170200 05006KT P6SM BKN015 FM170800 VRB03KT P6SM OVC020 FM171400 06005KT P6SM OVC035

Jun-16@
18:00 UTC

Jun-16 @ 18:00 UTC

Jun-17@
02:00 UTC

Jun-17 @ 02:00 UTC

KLAN 161740Z 1618/1718 07005KT P6SM OVC015
Wind
  • 070° at 5 KTS
Cloud Levels
  • Overcast at 1,500' AGL

Jun-17@
02:00 UTC

Jun-17 @ 02:00 UTC

Jun-17@
08:00 UTC

Jun-17 @ 08:00 UTC

FM170200 05006KT P6SM BKN015

From

From Standard forecast or significant change

Wind
  • 050° at 6 KTS
Cloud Levels
  • Broken at 1,500' AGL

Jun-17@
08:00 UTC

Jun-17 @ 08:00 UTC

Jun-17@
14:00 UTC

Jun-17 @ 14:00 UTC

FM170800 VRB03KT P6SM OVC020

From

From Standard forecast or significant change

Wind
  • Variable at 3 KTS
Cloud Levels
  • Overcast at 2,000' AGL

Jun-17@
14:00 UTC

Jun-17 @ 14:00 UTC

Jun-17@
18:00 UTC

Jun-17 @ 18:00 UTC

FM171400 06005KT P6SM OVC035

From

From Standard forecast or significant change

Wind
  • 060° at 5 KTS
Cloud Levels
  • Overcast at 3,500' AGL